sensor_id;sensor_type;location;lat;lon;timestamp;P1;durP1;ratioP1;P2;durP2;ratioP2
24153;SDS011;12312;53.362;-1.518;2023-05-02T00:00:02;9.68;;;4.22;;
24153;SDS011;12312;53.362;-1.518;2023-05-02T00:02:46;11.60;;;4.50;;
24153;SDS011;12312;53.362;-1.518;2023-05-02T00:05:30;12.70;;;4.38;;
24153;SDS011;12312;53.362;-1.518;2023-05-02T00:08:14;8.68;;;4.28;;
24153;SDS011;12312;53.362;-1.518;2023-05-02T00:10:59;12.52;;;6.10;;
24153;SDS011;12312;53.362;-1.518;2023-05-02T00:13:43;11.57;;;4.82;;
24153;SDS011;12312;53.362;-1.518;2023-05-02T00:16:27;15.30;;;5.57;;
24153;SDS011;12312;53.362;-1.518;2023-05-02T00:19:11;13.70;;;5.45;;
24153;SDS011;12312;53.362;-1.518;2023-05-02T00:21:55;14.07;;;4.93;;
24153;SDS011;12312;53.362;-1.518;2023-05-02T00:24:39;17.42;;;5.75;;
24153;SDS011;12312;53.362;-1.518;2023-05-02T00:27:23;12.07;;;5.43;;
24153;SDS011;12312;53.362;-1.518;2023-05-02T00:30:07;11.27;;;5.80;;
24153;SDS011;12312;53.362;-1.518;2023-05-02T00:32:52;12.63;;;6.68;;
24153;SDS011;12312;53.362;-1.518;2023-05-02T00:35:37;16.83;;;6.03;;
24153;SDS011;12312;53.362;-1.518;2023-05-02T00:38:21;14.27;;;5.75;;
24153;SDS011;12312;53.362;-1.518;2023-05-02T00:41:05;15.85;;;5.35;;
24153;SDS011;12312;53.362;-1.518;2023-05-02T00:43:49;16.50;;;5.25;;
24153;SDS011;12312;53.362;-1.518;2023-05-02T00:46:34;14.35;;;5.70;;
24153;SDS011;12312;53.362;-1.518;2023-05-02T00:49:19;13.77;;;5.03;;
24153;SDS011;12312;53.362;-1.518;2023-05-02T00:52:04;10.07;;;4.65;;
24153;SDS011;12312;53.362;-1.518;2023-05-02T00:54:50;12.50;;;5.15;;
24153;SDS011;12312;53.362;-1.518;2023-05-02T00:57:35;19.83;;;5.10;;
24153;SDS011;12312;53.362;-1.518;2023-05-02T01:03:19;19.23;;;6.63;;
24153;SDS011;12312;53.362;-1.518;2023-05-02T01:15:26;18.30;;;7.80;;
24153;SDS011;12312;53.362;-1.518;2023-05-02T01:18:15;22.63;;;8.82;;
24153;SDS011;12312;53.362;-1.518;2023-05-02T01:21:02;22.08;;;8.85;;
24153;SDS011;12312;53.362;-1.518;2023-05-02T01:30:31;22.98;;;8.88;;
24153;SDS011;12312;53.362;-1.518;2023-05-02T01:33:21;21.00;;;8.90;;
24153;SDS011;12312;53.362;-1.518;2023-05-02T01:36:08;20.90;;;8.30;;
24153;SDS011;12312;53.362;-1.518;2023-05-02T01:38:53;22.75;;;8.70;;
24153;SDS011;12312;53.362;-1.518;2023-05-02T01:41:39;19.85;;;5.20;;
24153;SDS011;12312;53.362;-1.518;2023-05-02T01:44:25;12.65;;;4.40;;
24153;SDS011;12312;53.362;-1.518;2023-05-02T01:49:55;11.43;;;3.67;;
24153;SDS011;12312;53.362;-1.518;2023-05-02T01:52:40;12.80;;;3.50;;
24153;SDS011;12312;53.362;-1.518;2023-05-02T01:55:27;14.60;;;3.90;;
24153;SDS011;12312;53.362;-1.518;2023-05-02T01:58:12;12.23;;;3.78;;
24153;SDS011;12312;53.362;-1.518;2023-05-02T02:00:59;11.18;;;3.25;;
24153;SDS011;12312;53.362;-1.518;2023-05-02T02:03:44;14.07;;;3.88;;
24153;SDS011;12312;53.362;-1.518;2023-05-02T02:06:30;12.50;;;3.67;;
24153;SDS011;12312;53.362;-1.518;2023-05-02T02:09:14;14.15;;;3.97;;
24153;SDS011;12312;53.362;-1.518;2023-05-02T02:12:10;13.90;;;3.53;;
24153;SDS011;12312;53.362;-1.518;2023-05-02T02:17:58;10.75;;;4.10;;
24153;SDS011;12312;53.362;-1.518;2023-05-02T02:20:44;10.75;;;4.35;;
24153;SDS011;12312;53.362;-1.518;2023-05-02T02:23:29;13.95;;;5.13;;
24153;SDS011;12312;53.362;-1.518;2023-05-02T02:26:18;15.75;;;6.10;;
24153;SDS011;12312;53.362;-1.518;2023-05-02T02:29:04;16.88;;;4.57;;
24153;SDS011;12312;53.362;-1.518;2023-05-02T02:31:49;15.73;;;5.50;;
24153;SDS011;12312;53.362;-1.518;2023-05-02T02:34:33;10.32;;;5.10;;
24153;SDS011;12312;53.362;-1.518;2023-05-02T02:37:18;13.43;;;5.15;;
24153;SDS011;12312;53.362;-1.518;2023-05-02T02:40:16;18.08;;;5.00;;
24153;SDS011;12312;53.362;-1.518;2023-05-02T02:46:45;12.52;;;4.70;;
24153;SDS011;12312;53.362;-1.518;2023-05-02T02:52:23;14.07;;;4.93;;
24153;SDS011;12312;53.362;-1.518;2023-05-02T03:01:39;19.63;;;5.00;;
24153;SDS011;12312;53.362;-1.518;2023-05-02T03:04:26;20.75;;;5.10;;
24153;SDS011;12312;53.362;-1.518;2023-05-02T03:07:14;17.10;;;4.45;;
24153;SDS011;12312;53.362;-1.518;2023-05-02T03:10:01;17.65;;;4.50;;
24153;SDS011;12312;53.362;-1.518;2023-05-02T03:12:46;13.82;;;5.20;;
24153;SDS011;12312;53.362;-1.518;2023-05-02T03:18:33;17.38;;;6.75;;
24153;SDS011;12312;53.362;-1.518;2023-05-02T03:21:17;19.30;;;6.22;;
24153;SDS011;12312;53.362;-1.518;2023-05-02T03:24:02;15.68;;;6.35;;
24153;SDS011;12312;53.362;-1.518;2023-05-02T03:26:47;24.00;;;7.13;;
24153;SDS011;12312;53.362;-1.518;2023-05-02T03:29:31;24.42;;;7.88;;
24153;SDS011;12312;53.362;-1.518;2023-05-02T03:32:15;19.38;;;8.52;;
24153;SDS011;12312;53.362;-1.518;2023-05-02T03:34:59;23.42;;;10.52;;
24153;SDS011;12312;53.362;-1.518;2023-05-02T03:37:44;21.77;;;10.23;;
24153;SDS011;12312;53.362;-1.518;2023-05-02T03:40:29;23.63;;;10.35;;
24153;SDS011;12312;53.362;-1.518;2023-05-02T03:43:14;28.33;;;11.30;;
24153;SDS011;12312;53.362;-1.518;2023-05-02T03:46:02;33.35;;;11.25;;
24153;SDS011;12312;53.362;-1.518;2023-05-02T03:48:48;24.40;;;11.77;;
24153;SDS011;12312;53.362;-1.518;2023-05-02T03:51:33;30.05;;;11.95;;
24153;SDS011;12312;53.362;-1.518;2023-05-02T03:54:18;21.70;;;11.30;;
24153;SDS011;12312;53.362;-1.518;2023-05-02T03:57:02;29.92;;;11.77;;
24153;SDS011;12312;53.362;-1.518;2023-05-02T03:59:47;32.38;;;11.95;;
24153;SDS011;12312;53.362;-1.518;2023-05-02T04:02:31;27.42;;;11.48;;
24153;SDS011;12312;53.362;-1.518;2023-05-02T04:05:15;31.55;;;12.90;;
24153;SDS011;12312;53.362;-1.518;2023-05-02T04:08:00;31.10;;;11.73;;
24153;SDS011;12312;53.362;-1.518;2023-05-02T04:10:45;28.50;;;11.75;;
24153;SDS011;12312;53.362;-1.518;2023-05-02T04:13:29;23.95;;;10.77;;
24153;SDS011;12312;53.362;-1.518;2023-05-02T04:16:14;30.10;;;10.85;;
24153;SDS011;12312;53.362;-1.518;2023-05-02T04:18:58;26.52;;;10.45;;
24153;SDS011;12312;53.362;-1.518;2023-05-02T04:21:42;23.35;;;9.40;;
24153;SDS011;12312;53.362;-1.518;2023-05-02T04:24:26;26.77;;;9.63;;
24153;SDS011;12312;53.362;-1.518;2023-05-02T04:27:10;21.00;;;9.65;;
24153;SDS011;12312;53.362;-1.518;2023-05-02T04:29:54;20.63;;;9.50;;
24153;SDS011;12312;53.362;-1.518;2023-05-02T04:32:39;28.50;;;9.73;;
24153;SDS011;12312;53.362;-1.518;2023-05-02T04:35:23;24.40;;;10.05;;
24153;SDS011;12312;53.362;-1.518;2023-05-02T04:38:07;25.27;;;9.65;;
24153;SDS011;12312;53.362;-1.518;2023-05-02T04:40:51;27.67;;;9.32;;
24153;SDS011;12312;53.362;-1.518;2023-05-02T04:43:36;29.38;;;8.98;;
24153;SDS011;12312;53.362;-1.518;2023-05-02T04:46:20;29.25;;;11.27;;
24153;SDS011;12312;53.362;-1.518;2023-05-02T04:49:04;25.05;;;8.73;;
24153;SDS011;12312;53.362;-1.518;2023-05-02T04:51:48;22.23;;;9.82;;
24153;SDS011;12312;53.362;-1.518;2023-05-02T04:54:35;20.58;;;9.45;;
24153;SDS011;12312;53.362;-1.518;2023-05-02T04:57:18;21.77;;;9.57;;
24153;SDS011;12312;53.362;-1.518;2023-05-02T05:00:03;28.58;;;9.45;;
24153;SDS011;12312;53.362;-1.518;2023-05-02T05:02:48;35.65;;;9.73;;
24153;SDS011;12312;53.362;-1.518;2023-05-02T05:05:32;29.00;;;11.07;;
24153;SDS011;12312;53.362;-1.518;2023-05-02T05:08:16;24.05;;;11.15;;
24153;SDS011;12312;53.362;-1.518;2023-05-02T05:11:00;22.40;;;10.02;;
24153;SDS011;12312;53.362;-1.518;2023-05-02T05:13:44;28.50;;;10.63;;
24153;SDS011;12312;53.362;-1.518;2023-05-02T05:16:29;28.02;;;10.00;;
24153;SDS011;12312;53.362;-1.518;2023-05-02T05:19:13;27.65;;;11.10;;
24153;SDS011;12312;53.362;-1.518;2023-05-02T05:21:57;28.45;;;9.98;;
24153;SDS011;12312;53.362;-1.518;2023-05-02T05:24:47;22.58;;;9.98;;
24153;SDS011;12312;53.362;-1.518;2023-05-02T05:27:34;21.13;;;9.55;;
24153;SDS011;12312;53.362;-1.518;2023-05-02T05:30:19;23.65;;;9.70;;
24153;SDS011;12312;53.362;-1.518;2023-05-02T05:33:03;25.55;;;10.73;;
24153;SDS011;12312;53.362;-1.518;2023-05-02T05:35:48;20.20;;;9.18;;
24153;SDS011;12312;53.362;-1.518;2023-05-02T05:38:32;25.20;;;9.73;;
24153;SDS011;12312;53.362;-1.518;2023-05-02T05:41:16;19.08;;;9.20;;
24153;SDS011;12312;53.362;-1.518;2023-05-02T05:44:00;22.98;;;8.98;;
24153;SDS011;12312;53.362;-1.518;2023-05-02T05:46:44;20.95;;;7.63;;
24153;SDS011;12312;53.362;-1.518;2023-05-02T05:49:29;17.42;;;7.10;;
24153;SDS011;12312;53.362;-1.518;2023-05-02T05:52:13;18.83;;;7.82;;
24153;SDS011;12312;53.362;-1.518;2023-05-02T05:54:57;18.88;;;7.30;;
24153;SDS011;12312;53.362;-1.518;2023-05-02T05:57:42;21.30;;;6.82;;
24153;SDS011;12312;53.362;-1.518;2023-05-02T06:00:26;14.77;;;6.43;;
24153;SDS011;12312;53.362;-1.518;2023-05-02T06:03:10;11.23;;;5.45;;
24153;SDS011;12312;53.362;-1.518;2023-05-02T06:05:55;19.15;;;6.10;;
24153;SDS011;12312;53.362;-1.518;2023-05-02T06:08:39;18.80;;;6.80;;
24153;SDS011;12312;53.362;-1.518;2023-05-02T06:11:24;19.05;;;6.45;;
24153;SDS011;12312;53.362;-1.518;2023-05-02T06:14:09;18.92;;;6.63;;
24153;SDS011;12312;53.362;-1.518;2023-05-02T06:16:57;17.85;;;5.53;;
24153;SDS011;12312;53.362;-1.518;2023-05-02T06:19:41;16.17;;;5.60;;
24153;SDS011;12312;53.362;-1.518;2023-05-02T06:22:25;18.35;;;6.75;;
24153;SDS011;12312;53.362;-1.518;2023-05-02T06:25:09;24.05;;;6.10;;
24153;SDS011;12312;53.362;-1.518;2023-05-02T06:27:53;20.30;;;6.30;;
24153;SDS011;12312;53.362;-1.518;2023-05-02T06:30:37;19.95;;;6.20;;
24153;SDS011;12312;53.362;-1.518;2023-05-02T06:33:21;16.65;;;5.22;;
24153;SDS011;12312;53.362;-1.518;2023-05-02T06:36:07;16.17;;;5.10;;
24153;SDS011;12312;53.362;-1.518;2023-05-02T06:38:53;15.27;;;5.97;;
24153;SDS011;12312;53.362;-1.518;2023-05-02T06:41:37;16.90;;;5.25;;
24153;SDS011;12312;53.362;-1.518;2023-05-02T06:44:21;12.48;;;5.10;;
24153;SDS011;12312;53.362;-1.518;2023-05-02T06:47:05;15.95;;;4.30;;
24153;SDS011;12312;53.362;-1.518;2023-05-02T06:49:52;12.77;;;4.72;;
24153;SDS011;12312;53.362;-1.518;2023-05-02T06:52:36;14.63;;;4.50;;
24153;SDS011;12312;53.362;-1.518;2023-05-02T06:55:20;15.23;;;4.13;;
24153;SDS011;12312;53.362;-1.518;2023-05-02T06:58:05;13.18;;;4.25;;
24153;SDS011;12312;53.362;-1.518;2023-05-02T07:00:49;9.75;;;3.38;;
24153;SDS011;12312;53.362;-1.518;2023-05-02T07:03:33;7.95;;;2.83;;
24153;SDS011;12312;53.362;-1.518;2023-05-02T07:06:17;10.07;;;3.13;;
24153;SDS011;12312;53.362;-1.518;2023-05-02T07:09:01;10.95;;;3.72;;
24153;SDS011;12312;53.362;-1.518;2023-05-02T07:11:45;15.07;;;3.60;;
24153;SDS011;12312;53.362;-1.518;2023-05-02T07:14:29;15.25;;;4.07;;
24153;SDS011;12312;53.362;-1.518;2023-05-02T07:17:13;12.10;;;3.67;;
24153;SDS011;12312;53.362;-1.518;2023-05-02T07:19:58;12.95;;;3.42;;
24153;SDS011;12312;53.362;-1.518;2023-05-02T07:22:42;12.32;;;3.72;;
24153;SDS011;12312;53.362;-1.518;2023-05-02T07:25:26;8.73;;;3.35;;
24153;SDS011;12312;53.362;-1.518;2023-05-02T07:28:10;12.65;;;4.30;;
24153;SDS011;12312;53.362;-1.518;2023-05-02T07:30:54;14.05;;;4.53;;
24153;SDS011;12312;53.362;-1.518;2023-05-02T07:33:38;15.88;;;4.53;;
24153;SDS011;12312;53.362;-1.518;2023-05-02T07:36:22;13.80;;;4.55;;
24153;SDS011;12312;53.362;-1.518;2023-05-02T07:39:06;20.30;;;4.70;;
24153;SDS011;12312;53.362;-1.518;2023-05-02T07:41:53;15.90;;;5.03;;
24153;SDS011;12312;53.362;-1.518;2023-05-02T07:44:38;11.70;;;4.35;;
24153;SDS011;12312;53.362;-1.518;2023-05-02T07:47:21;12.13;;;4.30;;
24153;SDS011;12312;53.362;-1.518;2023-05-02T07:50:06;11.73;;;4.20;;
24153;SDS011;12312;53.362;-1.518;2023-05-02T07:52:50;10.73;;;4.22;;
24153;SDS011;12312;53.362;-1.518;2023-05-02T07:55:34;16.95;;;5.30;;
24153;SDS011;12312;53.362;-1.518;2023-05-02T07:58:18;20.92;;;5.53;;
24153;SDS011;12312;53.362;-1.518;2023-05-02T08:01:02;23.13;;;5.15;;
24153;SDS011;12312;53.362;-1.518;2023-05-02T08:03:47;15.93;;;5.00;;
24153;SDS011;12312;53.362;-1.518;2023-05-02T08:06:32;19.75;;;5.32;;
24153;SDS011;12312;53.362;-1.518;2023-05-02T08:09:16;12.38;;;4.22;;
24153;SDS011;12312;53.362;-1.518;2023-05-02T08:12:00;17.73;;;4.72;;
24153;SDS011;12312;53.362;-1.518;2023-05-02T08:14:45;13.70;;;4.00;;
24153;SDS011;12312;53.362;-1.518;2023-05-02T08:17:29;10.60;;;3.65;;
24153;SDS011;12312;53.362;-1.518;2023-05-02T08:20:13;7.60;;;3.80;;
24153;SDS011;12312;53.362;-1.518;2023-05-02T08:22:57;12.90;;;4.25;;
24153;SDS011;12312;53.362;-1.518;2023-05-02T08:25:41;17.02;;;5.20;;
24153;SDS011;12312;53.362;-1.518;2023-05-02T08:28:25;13.32;;;3.88;;
24153;SDS011;12312;53.362;-1.518;2023-05-02T08:31:09;9.52;;;3.58;;
24153;SDS011;12312;53.362;-1.518;2023-05-02T08:33:53;7.35;;;2.60;;
24153;SDS011;12312;53.362;-1.518;2023-05-02T08:36:37;8.48;;;3.08;;
24153;SDS011;12312;53.362;-1.518;2023-05-02T08:39:21;10.80;;;3.00;;
24153;SDS011;12312;53.362;-1.518;2023-05-02T08:42:06;7.80;;;3.30;;
24153;SDS011;12312;53.362;-1.518;2023-05-02T08:44:51;8.10;;;3.30;;
24153;SDS011;12312;53.362;-1.518;2023-05-02T08:47:35;13.57;;;3.30;;
24153;SDS011;12312;53.362;-1.518;2023-05-02T08:50:21;7.82;;;3.10;;
24153;SDS011;12312;53.362;-1.518;2023-05-02T08:53:05;7.18;;;3.65;;
24153;SDS011;12312;53.362;-1.518;2023-05-02T08:55:51;8.27;;;3.03;;
24153;SDS011;12312;53.362;-1.518;2023-05-02T08:58:36;8.68;;;3.10;;
24153;SDS011;12312;53.362;-1.518;2023-05-02T09:01:21;8.65;;;2.83;;
24153;SDS011;12312;53.362;-1.518;2023-05-02T09:04:10;9.80;;;2.78;;
24153;SDS011;12312;53.362;-1.518;2023-05-02T09:06:57;8.27;;;3.60;;
24153;SDS011;12312;53.362;-1.518;2023-05-02T09:09:45;13.80;;;3.83;;
24153;SDS011;12312;53.362;-1.518;2023-05-02T09:12:30;8.98;;;3.90;;
24153;SDS011;12312;53.362;-1.518;2023-05-02T09:15:15;8.77;;;3.80;;
24153;SDS011;12312;53.362;-1.518;2023-05-02T09:18:01;8.93;;;3.90;;
24153;SDS011;12312;53.362;-1.518;2023-05-02T09:20:46;8.50;;;3.13;;
24153;SDS011;12312;53.362;-1.518;2023-05-02T09:23:34;10.45;;;3.00;;
24153;SDS011;12312;53.362;-1.518;2023-05-02T09:26:29;10.60;;;3.60;;
24153;SDS011;12312;53.362;-1.518;2023-05-02T09:29:15;7.70;;;3.35;;
24153;SDS011;12312;53.362;-1.518;2023-05-02T09:32:06;10.55;;;3.03;;
24153;SDS011;12312;53.362;-1.518;2023-05-02T09:35:03;6.95;;;3.05;;
24153;SDS011;12312;53.362;-1.518;2023-05-02T09:37:52;6.78;;;3.13;;
24153;SDS011;12312;53.362;-1.518;2023-05-02T09:40:38;8.20;;;2.90;;
24153;SDS011;12312;53.362;-1.518;2023-05-02T09:43:36;12.82;;;3.00;;
24153;SDS011;12312;53.362;-1.518;2023-05-02T09:46:21;9.63;;;3.15;;
24153;SDS011;12312;53.362;-1.518;2023-05-02T09:49:05;12.13;;;3.33;;
24153;SDS011;12312;53.362;-1.518;2023-05-02T09:51:49;8.57;;;2.83;;
24153;SDS011;12312;53.362;-1.518;2023-05-02T09:54:53;8.75;;;3.13;;
24153;SDS011;12312;53.362;-1.518;2023-05-02T09:57:39;8.13;;;2.92;;
24153;SDS011;12312;53.362;-1.518;2023-05-02T10:00:41;8.38;;;3.33;;
24153;SDS011;12312;53.362;-1.518;2023-05-02T10:03:27;7.38;;;3.15;;
24153;SDS011;12312;53.362;-1.518;2023-05-02T10:09:02;6.18;;;3.20;;
24153;SDS011;12312;53.362;-1.518;2023-05-02T10:11:50;10.55;;;3.45;;
24153;SDS011;12312;53.362;-1.518;2023-05-02T10:14:38;10.55;;;2.92;;
24153;SDS011;12312;53.362;-1.518;2023-05-02T10:17:27;12.18;;;3.15;;
24153;SDS011;12312;53.362;-1.518;2023-05-02T10:20:21;15.65;;;3.25;;
24153;SDS011;12312;53.362;-1.518;2023-05-02T10:23:07;4.45;;;2.75;;
24153;SDS011;12312;53.362;-1.518;2023-05-02T10:25:51;10.80;;;3.20;;
24153;SDS011;12312;53.362;-1.518;2023-05-02T10:28:35;12.90;;;3.13;;
24153;SDS011;12312;53.362;-1.518;2023-05-02T10:31:21;10.23;;;3.70;;
24153;SDS011;12312;53.362;-1.518;2023-05-02T10:34:05;10.02;;;3.55;;
24153;SDS011;12312;53.362;-1.518;2023-05-02T10:36:56;11.13;;;3.88;;
24153;SDS011;12312;53.362;-1.518;2023-05-02T10:39:43;12.23;;;4.03;;
24153;SDS011;12312;53.362;-1.518;2023-05-02T10:42:28;7.38;;;3.75;;
24153;SDS011;12312;53.362;-1.518;2023-05-02T10:45:35;10.50;;;3.70;;
24153;SDS011;12312;53.362;-1.518;2023-05-02T10:48:25;8.70;;;3.80;;
24153;SDS011;12312;53.362;-1.518;2023-05-02T10:51:10;9.38;;;3.78;;
24153;SDS011;12312;53.362;-1.518;2023-05-02T10:54:23;11.23;;;3.92;;
24153;SDS011;12312;53.362;-1.518;2023-05-02T10:57:08;8.55;;;3.80;;
24153;SDS011;12312;53.362;-1.518;2023-05-02T10:59:53;8.10;;;3.20;;
24153;SDS011;12312;53.362;-1.518;2023-05-02T11:03:00;10.93;;;3.67;;
24153;SDS011;12312;53.362;-1.518;2023-05-02T11:06:03;10.18;;;3.67;;
24153;SDS011;12312;53.362;-1.518;2023-05-02T11:08:49;11.05;;;3.95;;
24153;SDS011;12312;53.362;-1.518;2023-05-02T11:17:25;9.57;;;3.80;;
24153;SDS011;12312;53.362;-1.518;2023-05-02T11:25:56;10.20;;;4.10;;
24153;SDS011;12312;53.362;-1.518;2023-05-02T11:28:43;12.15;;;3.83;;
24153;SDS011;12312;53.362;-1.518;2023-05-02T11:34:14;10.25;;;3.97;;
24153;SDS011;12312;53.362;-1.518;2023-05-02T11:36:58;8.65;;;3.65;;
24153;SDS011;12312;53.362;-1.518;2023-05-02T11:39:42;11.98;;;3.85;;
24153;SDS011;12312;53.362;-1.518;2023-05-02T11:42:27;8.85;;;3.72;;
24153;SDS011;12312;53.362;-1.518;2023-05-02T11:45:13;9.23;;;3.90;;
24153;SDS011;12312;53.362;-1.518;2023-05-02T11:47:56;6.38;;;3.75;;
24153;SDS011;12312;53.362;-1.518;2023-05-02T11:50:45;8.18;;;3.78;;
24153;SDS011;12312;53.362;-1.518;2023-05-02T11:53:46;9.70;;;3.67;;
24153;SDS011;12312;53.362;-1.518;2023-05-02T11:56:31;7.53;;;3.78;;
24153;SDS011;12312;53.362;-1.518;2023-05-02T11:59:15;8.63;;;3.85;;
24153;SDS011;12312;53.362;-1.518;2023-05-02T12:01:59;9.43;;;3.80;;
24153;SDS011;12312;53.362;-1.518;2023-05-02T12:04:43;9.57;;;3.60;;
24153;SDS011;12312;53.362;-1.518;2023-05-02T12:07:37;11.70;;;3.78;;
24153;SDS011;12312;53.362;-1.518;2023-05-02T12:10:24;9.80;;;4.28;;
24153;SDS011;12312;53.362;-1.518;2023-05-02T12:13:20;10.98;;;3.60;;
24153;SDS011;12312;53.362;-1.518;2023-05-02T12:16:05;11.13;;;4.60;;
24153;SDS011;12312;53.362;-1.518;2023-05-02T12:18:49;9.35;;;3.70;;
24153;SDS011;12312;53.362;-1.518;2023-05-02T12:21:34;8.15;;;3.80;;
24153;SDS011;12312;53.362;-1.518;2023-05-02T12:24:19;8.35;;;3.80;;
24153;SDS011;12312;53.362;-1.518;2023-05-02T12:27:07;9.73;;;3.45;;
24153;SDS011;12312;53.362;-1.518;2023-05-02T12:29:53;14.07;;;3.72;;
24153;SDS011;12312;53.362;-1.518;2023-05-02T12:32:38;8.52;;;3.00;;
24153;SDS011;12312;53.362;-1.518;2023-05-02T12:35:28;10.95;;;3.65;;
24153;SDS011;12312;53.362;-1.518;2023-05-02T12:38:17;8.95;;;3.40;;
24153;SDS011;12312;53.362;-1.518;2023-05-02T12:41:06;9.75;;;3.58;;
24153;SDS011;12312;53.362;-1.518;2023-05-02T12:43:51;7.82;;;3.15;;
24153;SDS011;12312;53.362;-1.518;2023-05-02T12:46:56;9.77;;;3.95;;
24153;SDS011;12312;53.362;-1.518;2023-05-02T12:52:50;10.73;;;3.60;;
24153;SDS011;12312;53.362;-1.518;2023-05-02T12:55:40;6.07;;;2.97;;
24153;SDS011;12312;53.362;-1.518;2023-05-02T12:58:25;8.60;;;2.92;;
24153;SDS011;12312;53.362;-1.518;2023-05-02T13:01:12;10.30;;;2.67;;
24153;SDS011;12312;53.362;-1.518;2023-05-02T13:03:57;10.10;;;3.28;;
24153;SDS011;12312;53.362;-1.518;2023-05-02T13:06:41;12.93;;;2.92;;
24153;SDS011;12312;53.362;-1.518;2023-05-02T13:09:25;8.27;;;2.78;;
24153;SDS011;12312;53.362;-1.518;2023-05-02T13:12:09;8.05;;;2.97;;
24153;SDS011;12312;53.362;-1.518;2023-05-02T13:14:53;8.30;;;2.92;;
24153;SDS011;12312;53.362;-1.518;2023-05-02T13:17:38;7.72;;;2.72;;
24153;SDS011;12312;53.362;-1.518;2023-05-02T13:20:23;8.95;;;2.90;;
24153;SDS011;12312;53.362;-1.518;2023-05-02T13:23:09;10.88;;;3.72;;
24153;SDS011;12312;53.362;-1.518;2023-05-02T13:25:53;7.78;;;3.22;;
24153;SDS011;12312;53.362;-1.518;2023-05-02T13:28:36;8.07;;;4.35;;
24153;SDS011;12312;53.362;-1.518;2023-05-02T13:31:22;5.28;;;2.65;;
24153;SDS011;12312;53.362;-1.518;2023-05-02T13:34:06;9.70;;;3.78;;
24153;SDS011;12312;53.362;-1.518;2023-05-02T13:36:50;7.43;;;3.25;;
24153;SDS011;12312;53.362;-1.518;2023-05-02T13:39:34;9.23;;;3.10;;
24153;SDS011;12312;53.362;-1.518;2023-05-02T13:42:21;9.75;;;3.30;;
24153;SDS011;12312;53.362;-1.518;2023-05-02T13:45:06;8.93;;;3.17;;
24153;SDS011;12312;53.362;-1.518;2023-05-02T13:47:51;9.95;;;2.92;;
24153;SDS011;12312;53.362;-1.518;2023-05-02T13:50:35;8.20;;;3.38;;
24153;SDS011;12312;53.362;-1.518;2023-05-02T13:53:21;10.65;;;3.45;;
24153;SDS011;12312;53.362;-1.518;2023-05-02T13:56:05;7.07;;;3.03;;
24153;SDS011;12312;53.362;-1.518;2023-05-02T13:58:49;11.25;;;3.50;;
24153;SDS011;12312;53.362;-1.518;2023-05-02T14:01:33;11.80;;;3.40;;
24153;SDS011;12312;53.362;-1.518;2023-05-02T14:04:18;8.95;;;3.22;;
24153;SDS011;12312;53.362;-1.518;2023-05-02T14:07:02;5.70;;;2.75;;
24153;SDS011;12312;53.362;-1.518;2023-05-02T14:09:46;9.05;;;3.13;;
24153;SDS011;12312;53.362;-1.518;2023-05-02T14:12:30;7.85;;;2.80;;
24153;SDS011;12312;53.362;-1.518;2023-05-02T14:15:14;6.80;;;3.10;;
24153;SDS011;12312;53.362;-1.518;2023-05-02T14:17:58;7.30;;;3.30;;
24153;SDS011;12312;53.362;-1.518;2023-05-02T14:20:42;5.47;;;3.15;;
24153;SDS011;12312;53.362;-1.518;2023-05-02T14:23:26;11.02;;;3.17;;
24153;SDS011;12312;53.362;-1.518;2023-05-02T14:26:14;3.60;;;2.50;;
24153;SDS011;12312;53.362;-1.518;2023-05-02T14:28:59;6.75;;;2.90;;
24153;SDS011;12312;53.362;-1.518;2023-05-02T14:31:43;9.05;;;3.08;;
24153;SDS011;12312;53.362;-1.518;2023-05-02T14:34:28;10.02;;;3.15;;
24153;SDS011;12312;53.362;-1.518;2023-05-02T14:37:13;10.68;;;3.13;;
24153;SDS011;12312;53.362;-1.518;2023-05-02T14:39:57;10.23;;;3.20;;
24153;SDS011;12312;53.362;-1.518;2023-05-02T14:42:42;7.57;;;3.10;;
24153;SDS011;12312;53.362;-1.518;2023-05-02T14:45:26;5.00;;;2.60;;
24153;SDS011;12312;53.362;-1.518;2023-05-02T14:48:10;9.30;;;3.50;;
24153;SDS011;12312;53.362;-1.518;2023-05-02T14:50:56;10.30;;;3.50;;
24153;SDS011;12312;53.362;-1.518;2023-05-02T14:53:42;7.40;;;4.13;;
24153;SDS011;12312;53.362;-1.518;2023-05-02T14:56:26;7.40;;;3.55;;
24153;SDS011;12312;53.362;-1.518;2023-05-02T14:59:11;8.90;;;3.75;;
24153;SDS011;12312;53.362;-1.518;2023-05-02T15:01:55;10.30;;;3.92;;
24153;SDS011;12312;53.362;-1.518;2023-05-02T15:04:40;8.75;;;3.50;;
24153;SDS011;12312;53.362;-1.518;2023-05-02T15:07:23;7.70;;;3.60;;
24153;SDS011;12312;53.362;-1.518;2023-05-02T15:10:08;9.20;;;3.85;;
24153;SDS011;12312;53.362;-1.518;2023-05-02T15:12:53;7.90;;;3.53;;
24153;SDS011;12312;53.362;-1.518;2023-05-02T15:15:37;8.95;;;4.15;;
24153;SDS011;12312;53.362;-1.518;2023-05-02T15:18:21;8.25;;;3.80;;
24153;SDS011;12312;53.362;-1.518;2023-05-02T15:21:05;6.53;;;3.78;;
24153;SDS011;12312;53.362;-1.518;2023-05-02T15:23:49;7.63;;;3.90;;
24153;SDS011;12312;53.362;-1.518;2023-05-02T15:26:33;8.25;;;4.15;;
24153;SDS011;12312;53.362;-1.518;2023-05-02T15:29:17;9.40;;;4.32;;
24153;SDS011;12312;53.362;-1.518;2023-05-02T15:32:02;8.18;;;4.60;;
24153;SDS011;12312;53.362;-1.518;2023-05-02T15:34:46;10.23;;;3.65;;
24153;SDS011;12312;53.362;-1.518;2023-05-02T15:37:30;8.00;;;4.00;;
24153;SDS011;12312;53.362;-1.518;2023-05-02T15:40:15;9.88;;;3.95;;
24153;SDS011;12312;53.362;-1.518;2023-05-02T15:42:59;10.80;;;4.43;;
24153;SDS011;12312;53.362;-1.518;2023-05-02T15:45:43;8.10;;;3.95;;
24153;SDS011;12312;53.362;-1.518;2023-05-02T15:48:28;8.95;;;3.92;;
24153;SDS011;12312;53.362;-1.518;2023-05-02T15:51:13;9.13;;;3.72;;
24153;SDS011;12312;53.362;-1.518;2023-05-02T15:53:57;10.38;;;4.00;;
24153;SDS011;12312;53.362;-1.518;2023-05-02T15:56:42;8.82;;;3.70;;
24153;SDS011;12312;53.362;-1.518;2023-05-02T15:59:26;12.82;;;4.45;;
24153;SDS011;12312;53.362;-1.518;2023-05-02T16:02:10;13.65;;;4.47;;
24153;SDS011;12312;53.362;-1.518;2023-05-02T16:04:56;9.88;;;3.95;;
24153;SDS011;12312;53.362;-1.518;2023-05-02T16:07:40;12.55;;;4.10;;
24153;SDS011;12312;53.362;-1.518;2023-05-02T16:10:25;8.25;;;3.70;;
24153;SDS011;12312;53.362;-1.518;2023-05-02T16:13:11;14.05;;;4.30;;
24153;SDS011;12312;53.362;-1.518;2023-05-02T16:15:55;10.65;;;3.88;;
24153;SDS011;12312;53.362;-1.518;2023-05-02T16:18:39;11.00;;;4.18;;
24153;SDS011;12312;53.362;-1.518;2023-05-02T16:21:24;9.50;;;4.13;;
24153;SDS011;12312;53.362;-1.518;2023-05-02T16:24:08;12.40;;;4.20;;
24153;SDS011;12312;53.362;-1.518;2023-05-02T16:26:53;7.13;;;3.72;;
24153;SDS011;12312;53.362;-1.518;2023-05-02T16:29:38;12.23;;;4.22;;
24153;SDS011;12312;53.362;-1.518;2023-05-02T16:32:28;9.80;;;4.10;;
24153;SDS011;12312;53.362;-1.518;2023-05-02T16:35:13;7.35;;;3.42;;
24153;SDS011;12312;53.362;-1.518;2023-05-02T16:37:57;13.35;;;4.35;;
24153;SDS011;12312;53.362;-1.518;2023-05-02T16:40:40;8.13;;;4.07;;
24153;SDS011;12312;53.362;-1.518;2023-05-02T16:43:25;11.15;;;4.30;;
24153;SDS011;12312;53.362;-1.518;2023-05-02T16:46:09;9.70;;;3.85;;
24153;SDS011;12312;53.362;-1.518;2023-05-02T16:48:53;14.18;;;3.95;;
24153;SDS011;12312;53.362;-1.518;2023-05-02T16:51:37;12.30;;;4.00;;
24153;SDS011;12312;53.362;-1.518;2023-05-02T16:54:22;10.52;;;4.38;;
24153;SDS011;12312;53.362;-1.518;2023-05-02T16:57:06;10.95;;;4.18;;
24153;SDS011;12312;53.362;-1.518;2023-05-02T16:59:50;8.68;;;3.70;;
24153;SDS011;12312;53.362;-1.518;2023-05-02T17:02:35;10.45;;;3.83;;
24153;SDS011;12312;53.362;-1.518;2023-05-02T17:05:19;10.63;;;3.95;;
24153;SDS011;12312;53.362;-1.518;2023-05-02T17:08:05;11.55;;;3.50;;
24153;SDS011;12312;53.362;-1.518;2023-05-02T17:10:49;9.10;;;3.28;;
24153;SDS011;12312;53.362;-1.518;2023-05-02T17:13:34;6.95;;;3.55;;